Time;durP1;ratioP1;P1;durP2;ratioP2;P2;SDS_P1;SDS_P2;PMS_P1;PMS_P2;Temp;Humidity;BMP_temperature;BMP_pressure;BME280_temperature;BME280_humidity;BME280_pressure;Samples;Min_cycle;Max_cycle;Signal;HPM_P1;HPM_P2
2023/04/24 00:00:26;;;;;;;7.00;5.40;;;;;;;5.07;74.70;95161.19;106677;1279;22971;-65
2023/04/24 00:03:14;;;;;;;6.40;5.10;;;;;;;5.01;74.57;95160.86;106369;1279;24349;-65
2023/04/24 00:05:42;;;;;;;6.10;4.60;;;;;;;4.99;74.79;95158.59;106381;1279;22563;-65
2023/04/24 00:08:11;;;;;;;5.20;4.50;;;;;;;4.88;74.64;95157.59;106644;1278;23153;-65
2023/04/24 00:10:39;;;;;;;7.70;6.00;;;;;;;4.75;75.46;95159.90;106679;1279;22710;-65
2023/04/24 00:13:07;;;;;;;7.40;4.80;;;;;;;4.67;75.69;95159.23;106713;1279;22530;-65
2023/04/24 00:15:35;;;;;;;5.80;5.00;;;;;;;4.66;75.54;95156.27;106669;1279;22588;-65
2023/04/24 00:18:05;;;;;;;6.30;4.20;;;;;;;4.65;76.23;95148.80;106351;1279;22531;-65
2023/04/24 00:20:35;;;;;;;7.10;4.30;;;;;;;4.65;75.91;95146.87;106444;1279;25545;-65
2023/04/24 00:23:03;;;;;;;6.50;4.60;;;;;;;4.64;76.34;95146.87;106392;1279;22538;-65
2023/04/24 00:25:31;;;;;;;7.30;4.40;;;;;;;4.62;76.40;95145.83;106673;1279;25389;-65
2023/04/24 00:27:59;;;;;;;6.00;4.50;;;;;;;4.64;76.51;95146.54;106684;1279;22639;-65
2023/04/24 00:30:28;;;;;;;5.50;4.00;;;;;;;4.65;76.53;95146.18;106760;1279;25377;-65
2023/04/24 00:32:57;;;;;;;4.40;3.70;;;;;;;4.67;76.70;95149.30;106620;1279;22650;-65
2023/04/24 00:35:25;;;;;;;5.60;4.00;;;;;;;4.68;76.64;95144.08;106228;1279;25387;-65
2023/04/24 00:37:54;;;;;;;5.50;4.10;;;;;;;4.74;76.75;95148.23;106274;1280;22643;-65
2023/04/24 00:40:22;;;;;;;7.80;4.40;;;;;;;4.79;76.95;95144.21;106324;1280;22528;-65
2023/04/24 00:42:50;;;;;;;6.30;4.10;;;;;;;4.75;76.83;95146.14;106215;1280;22652;-65
2023/04/24 00:45:19;;;;;;;6.00;4.20;;;;;;;4.76;76.94;95145.09;106214;1280;25352;-65
2023/04/24 00:47:49;;;;;;;4.60;4.00;;;;;;;4.68;76.74;95143.21;106245;1280;22670;-65
2023/04/24 00:50:19;;;;;;;6.90;4.10;;;;;;;4.62;77.34;95145.14;106326;1280;24384;-65
2023/04/24 00:52:47;;;;;;;5.50;4.30;;;;;;;4.61;77.36;95140.45;106256;1280;25274;-66
2023/04/24 00:55:16;;;;;;;9.30;5.60;;;;;;;4.58;77.16;95143.41;106289;1280;25463;-65
2023/04/24 00:57:46;;;;;;;6.80;5.40;;;;;;;4.61;77.35;95140.61;106379;1257;24257;-65
2023/04/24 01:00:16;;;;;;;11.20;5.90;;;;;;;4.62;78.13;95138.52;106571;1280;22786;-65
2023/04/24 01:02:45;;;;;;;6.40;4.80;;;;;;;4.58;77.78;95138.36;106365;1280;25326;-65
2023/04/24 01:05:15;;;;;;;9.10;5.40;;;;;;;4.48;77.59;95138.03;106310;1280;22536;-65
2023/04/24 01:07:45;;;;;;;6.40;5.40;;;;;;;4.43;77.33;95137.34;106319;1280;22612;-65
2023/04/24 01:10:15;;;;;;;6.40;5.40;;;;;;;4.46;77.46;95137.16;106204;1280;24204;-65
2023/04/24 01:12:43;;;;;;;7.30;5.40;;;;;;;4.47;77.15;95137.35;106243;1280;24383;-65
2023/04/24 01:15:13;;;;;;;6.00;5.30;;;;;;;4.48;76.89;95135.59;106701;1279;22627;-65
2023/04/24 01:17:42;;;;;;;5.80;5.10;;;;;;;4.46;76.76;95137.34;106730;1280;25402;-65
2023/04/24 01:20:12;;;;;;;8.90;4.80;;;;;;;4.35;77.07;95134.23;106262;1280;25383;-65
2023/04/24 01:22:42;;;;;;;6.40;5.40;;;;;;;4.23;76.81;95134.43;106303;1280;25632;-65
2023/04/24 01:25:10;;;;;;;7.10;4.90;;;;;;;4.19;76.79;95132.70;106703;1273;22992;-65
2023/04/24 01:27:38;;;;;;;7.20;5.20;;;;;;;4.13;76.80;95132.02;106643;1279;25402;-65
2023/04/24 01:30:08;;;;;;;5.00;4.10;;;;;;;4.10;76.85;95132.02;106436;1279;24303;-65
2023/04/24 01:32:37;;;;;;;8.50;5.50;;;;;;;4.03;76.57;95129.41;106316;1279;26744;-65
2023/04/24 01:35:06;;;;;;;7.70;5.10;;;;;;;3.97;76.90;95125.23;106448;1279;22820;-65
2023/04/24 01:37:36;;;;;;;6.20;5.50;;;;;;;3.93;76.83;95125.25;106307;1279;22530;-65
2023/04/24 01:40:07;;;;;;;6.10;5.10;;;;;;;3.88;76.65;95124.02;106613;1279;24200;-65
2023/04/24 01:42:35;;;;;;;7.00;5.80;;;;;;;3.86;76.78;95122.63;106497;1279;22524;-65
2023/04/24 01:45:05;;;;;;;9.40;5.70;;;;;;;3.81;76.61;95119.50;106256;1279;25268;-66
2023/04/24 01:47:34;;;;;;;5.90;4.80;;;;;;;3.76;76.54;95116.54;106216;1279;22529;-65
2023/04/24 01:50:04;;;;;;;6.50;5.40;;;;;;;3.69;76.82;95113.94;106443;1279;22520;-65
2023/04/24 01:52:33;;;;;;;11.80;6.50;;;;;;;3.64;77.16;95113.75;106411;1279;22693;-65
2023/04/24 01:55:03;;;;;;;7.90;6.50;;;;;;;3.59;76.95;95110.97;106420;1279;22510;-65
2023/04/24 01:57:33;;;;;;;6.00;5.40;;;;;;;3.59;76.99;95108.88;106394;1278;22531;-65
2023/04/24 02:00:04;;;;;;;6.70;5.50;;;;;;;3.58;77.10;95112.02;106375;1278;22642;-65
2023/04/24 02:02:41;;;;;;;5.90;5.30;;;;;;;3.56;77.61;95111.83;106475;1279;22520;-65
2023/04/24 02:05:12;;;;;;;5.80;4.70;;;;;;;3.54;77.71;95107.32;106490;1278;25024;-65
2023/04/24 02:07:40;;;;;;;5.90;4.50;;;;;;;3.50;77.82;95106.27;106326;1278;25370;-65
2023/04/24 02:10:10;;;;;;;6.30;3.90;;;;;;;3.47;77.94;95103.31;106412;1278;25386;-65
2023/04/24 02:12:42;;;;;;;6.30;4.20;;;;;;;3.51;78.44;95099.31;106410;1278;23008;-65
2023/04/24 02:15:11;;;;;;;6.70;4.00;;;;;;;3.57;78.81;95095.84;106565;1278;22541;-65
2023/04/24 02:17:39;;;;;;;8.30;3.90;;;;;;;3.54;78.41;95093.05;106663;1278;22644;-65
2023/04/24 02:20:08;;;;;;;4.80;3.80;;;;;;;3.50;78.53;95098.44;106634;1278;22584;-65
2023/04/24 02:22:39;;;;;;;5.00;4.30;;;;;;;3.53;78.90;95095.66;106721;1278;22648;-65
2023/04/24 02:25:08;;;;;;;5.30;4.00;;;;;;;3.54;78.76;95097.05;106568;1278;25497;-65
2023/04/24 02:27:36;;;;;;;5.70;4.30;;;;;;;3.51;78.88;95092.70;106617;1278;24053;-65
2023/04/24 02:30:07;;;;;;;5.90;3.90;;;;;;;3.52;79.06;95094.98;106280;1279;22534;-66
2023/04/24 02:32:35;;;;;;;6.60;4.30;;;;;;;3.56;79.10;95092.19;106653;1280;22542;-65
2023/04/24 02:35:04;;;;;;;7.00;4.10;;;;;;;3.61;78.99;95093.93;106424;1280;25367;-65
2023/04/24 02:37:32;;;;;;;6.70;4.10;;;;;;;3.62;78.80;95092.53;106608;1280;22530;-65
2023/04/24 02:40:01;;;;;;;4.50;3.70;;;;;;;3.61;78.77;95091.48;106246;1280;22844;-65
2023/04/24 02:42:29;;;;;;;4.90;4.40;;;;;;;3.60;78.68;95090.98;106241;1280;24387;-65
2023/04/24 02:44:58;;;;;;;6.50;5.00;;;;;;;3.63;78.91;95086.63;106438;1280;26503;-65
2023/04/24 02:47:26;;;;;;;6.70;5.10;;;;;;;3.60;78.46;95084.70;106316;1280;22642;-65
2023/04/24 02:49:55;;;;;;;7.00;5.60;;;;;;;3.53;78.35;95087.31;106187;1280;22656;-66
2023/04/24 02:52:23;;;;;;;8.00;5.90;;;;;;;3.45;78.24;95083.14;106270;1266;22658;-65
2023/04/24 02:54:51;;;;;;;7.00;5.90;;;;;;;3.42;78.65;95083.13;106233;1280;25507;-65
2023/04/24 02:57:19;;;;;;;8.40;5.50;;;;;;;3.43;78.58;95084.37;106178;1280;25406;-65
2023/04/24 02:59:48;;;;;;;7.90;5.50;;;;;;;3.42;78.29;95079.48;106284;1280;22524;-65
2023/04/24 03:02:16;;;;;;;6.60;5.10;;;;;;;3.39;78.14;95076.71;106211;1280;22573;-65
2023/04/24 03:04:44;;;;;;;6.30;5.20;;;;;;;3.34;77.86;95072.53;106238;1280;24186;-65
2023/04/24 03:07:20;;;;;;;8.30;5.30;;;;;;;3.29;78.05;95073.56;106317;1280;24238;-65
2023/04/24 03:09:49;;;;;;;5.40;4.80;;;;;;;3.22;77.93;95077.02;106222;1280;22527;-65
2023/04/24 03:12:17;;;;;;;7.40;5.60;;;;;;;3.11;77.96;95075.11;106262;1280;22567;-65
2023/04/24 03:14:46;;;;;;;5.50;4.60;;;;;;;3.04;78.03;95079.09;106275;1280;22571;-65
2023/04/24 03:17:14;;;;;;;7.10;5.20;;;;;;;2.97;78.34;95075.43;106251;1280;24383;-65
2023/04/24 03:19:42;;;;;;;8.20;5.80;;;;;;;2.92;78.99;95076.46;106184;1280;22533;-65
2023/04/24 03:22:12;;;;;;;6.20;4.80;;;;;;;2.86;79.54;95076.95;106549;1276;25278;-65
2023/04/24 03:24:40;;;;;;;9.80;5.40;;;;;;;2.79;80.76;95075.90;106606;1276;25269;-65
2023/04/24 03:27:09;;;;;;;7.00;5.70;;;;;;;2.74;81.56;95079.55;106679;1276;22657;-64
2023/04/24 03:30:00;;;;;;;8.50;5.30;;;;;;;2.69;81.03;95079.70;106586;1276;22650;-65
2023/04/24 03:32:49;;;;;;;9.00;6.90;;;;;;;2.67;81.84;95076.90;106895;1276;22520;-64
2023/04/24 03:35:21;;;;;;;10.50;6.10;;;;;;;2.62;81.88;95078.27;106740;1276;24259;-64
2023/04/24 03:37:50;;;;;;;10.30;5.50;;;;;;;2.58;81.63;95081.39;106633;1276;22990;-64
2023/04/24 03:40:37;;;;;;;7.50;5.60;;;;;;;2.61;81.21;95078.09;106729;1276;22566;-64
2023/04/24 03:43:12;;;;;;;8.60;6.90;;;;;;;2.62;80.88;95078.98;106765;1276;25412;-64
2023/04/24 03:45:40;;;;;;;9.80;6.70;;;;;;;2.65;80.76;95080.54;106901;1276;25331;-64
2023/04/24 03:48:09;;;;;;;8.30;6.50;;;;;;;2.70;80.98;95080.39;106641;1276;22623;-65
2023/04/24 03:50:38;;;;;;;8.80;6.00;;;;;;;2.73;81.00;95078.66;106574;1276;25329;-64
2023/04/24 03:53:08;;;;;;;7.20;5.10;;;;;;;2.77;81.30;95077.29;106573;1276;24324;-64
2023/04/24 03:55:39;;;;;;;9.00;5.60;;;;;;;2.85;82.05;95074.70;106556;1276;24370;-64
2023/04/24 03:58:07;;;;;;;8.70;5.20;;;;;;;2.92;82.14;95077.67;106649;1276;22528;-65
2023/04/24 04:00:37;;;;;;;8.40;5.30;;;;;;;3.00;81.72;95076.65;106645;1276;22531;-65
2023/04/24 04:03:25;;;;;;;7.40;5.70;;;;;;;3.16;82.31;95081.20;106596;1276;22931;-65
2023/04/24 04:05:54;;;;;;;7.30;4.40;;;;;;;3.27;82.30;95082.27;106575;1276;24247;-65
2023/04/24 04:08:22;;;;;;;6.90;4.10;;;;;;;3.42;82.14;95081.23;106546;1276;24486;-65
2023/04/24 04:10:50;;;;;;;5.90;4.30;;;;;;;3.52;81.47;95080.54;106575;1276;22804;-65
2023/04/24 04:13:19;;;;;;;6.30;5.20;;;;;;;3.62;81.36;95080.02;106579;1276;25411;-65
2023/04/24 04:15:47;;;;;;;6.80;4.70;;;;;;;3.73;81.13;95078.27;106522;1276;24263;-65
2023/04/24 04:18:15;;;;;;;8.60;4.40;;;;;;;3.77;81.32;95078.96;106536;1276;23279;-65
2023/04/24 04:20:44;;;;;;;108.00;44.40;;;;;;;3.86;81.56;95080.00;106719;1276;22760;-65
2023/04/24 04:23:13;;;;;;;14.00;9.40;;;;;;;4.10;81.85;95081.36;106830;1276;22527;-65
2023/04/24 04:26:06;;;;;;;27.40;12.20;;;;;;;4.27;80.58;95078.53;106518;1276;22527;-65
2023/04/24 04:28:57;;;;;;;145.90;60.00;;;;;;;4.41;81.46;95080.41;106614;1276;22525;-65
2023/04/24 04:31:25;;;;;;;54.00;26.80;;;;;;;4.62;81.66;95079.29;106529;1276;22762;-65
2023/04/24 04:33:54;;;;;;;39.20;20.70;;;;;;;4.87;80.71;95070.46;106569;1276;25423;-65
2023/04/24 04:36:23;;;;;;;52.10;26.50;;;;;;;5.06;80.04;95070.19;106562;1276;25214;-65
2023/04/24 04:38:56;;;;;;;21.00;12.50;;;;;;;5.19;79.22;95065.92;106579;1276;22650;-65
2023/04/24 04:41:41;;;;;;;115.90;51.00;;;;;;;5.34;79.15;95063.75;106797;1276;25224;-65
2023/04/24 04:44:10;;;;;;;32.30;18.50;;;;;;;5.51;78.58;95060.11;106802;1276;22567;-65
2023/04/24 04:46:38;;;;;;;85.20;40.50;;;;;;;5.67;78.43;95060.70;106874;1276;22860;-65
2023/04/24 04:49:28;;;;;;;32.70;20.60;;;;;;;5.84;77.94;95061.59;106849;1276;22545;-65
2023/04/24 04:51:57;;;;;;;58.90;33.80;;;;;;;5.97;77.46;95056.63;106693;1276;25350;-65
2023/04/24 04:54:26;;;;;;;19.60;11.00;;;;;;;6.08;77.67;95051.45;106629;1276;22991;-65
2023/04/24 04:56:55;;;;;;;13.20;10.10;;;;;;;6.20;77.74;95048.89;106592;1276;22522;-65
2023/04/24 04:59:23;;;;;;;11.70;8.50;;;;;;;6.33;77.35;95050.14;106534;1276;25403;-66
2023/04/24 05:01:56;;;;;;;9.20;7.90;;;;;;;6.44;76.82;95045.30;106839;1276;24853;-66
2023/04/24 05:04:25;;;;;;;9.70;7.20;;;;;;;6.57;76.93;95037.98;106885;1261;25530;-68
2023/04/24 05:06:53;;;;;;;15.90;10.50;;;;;;;6.69;76.56;95036.45;106525;1276;22523;-68
2023/04/24 05:09:22;;;;;;;49.70;31.60;;;;;;;6.82;76.54;95037.69;106475;1276;22516;-65
2023/04/24 05:11:54;;;;;;;13.60;9.80;;;;;;;6.89;75.86;95037.23;106495;1276;24192;-66
2023/04/24 05:14:23;;;;;;;11.80;8.00;;;;;;;6.95;75.78;95032.27;106700;1276;24228;-65
2023/04/24 05:16:52;;;;;;;24.80;15.80;;;;;;;7.01;75.67;95033.92;106614;1276;22619;-68
2023/04/24 05:19:25;;;;;;;18.90;13.70;;;;;;;7.09;75.77;95032.07;106600;1276;23273;-65
2023/04/24 05:21:53;;;;;;;51.30;37.40;;;;;;;7.14;75.63;95036.02;106539;1276;24350;-67
2023/04/24 05:24:22;;;;;;;15.90;13.40;;;;;;;7.15;75.46;95039.51;106664;1276;22637;-65
2023/04/24 05:27:26;;;;;;;14.80;11.20;;;;;;;7.17;75.35;95039.84;106535;1280;24238;-65
2023/04/24 05:29:54;;;;;;;11.30;10.00;;;;;;;7.17;75.20;95037.73;107029;1275;22518;-64
2023/04/24 05:32:22;;;;;;;11.50;8.40;;;;;;;7.18;75.06;95043.13;106989;1275;23008;-66
2023/04/24 05:34:51;;;;;;;17.50;10.60;;;;;;;7.20;74.96;95043.80;106953;1275;24265;-63
2023/04/24 05:37:20;;;;;;;22.40;13.80;;;;;;;7.27;74.77;95039.86;106965;1275;24367;-67
2023/04/24 05:39:49;;;;;;;22.50;14.00;;;;;;;7.34;74.45;95042.56;106748;1275;24869;-66
2023/04/24 05:42:18;;;;;;;20.50;14.30;;;;;;;7.39;73.75;95041.96;106926;1275;25472;-65
2023/04/24 05:44:47;;;;;;;12.50;8.10;;;;;;;7.51;73.80;95042.65;106641;1275;22520;-66
2023/04/24 05:47:15;;;;;;;14.40;9.20;;;;;;;7.70;73.52;95040.41;106928;1275;24245;-66
2023/04/24 05:49:44;;;;;;;13.70;9.20;;;;;;;7.91;73.33;95040.23;106828;1275;22520;-66
2023/04/24 05:52:12;;;;;;;16.20;11.90;;;;;;;8.12;73.63;95037.23;106678;1275;24323;-65
2023/04/24 05:54:40;;;;;;;13.70;9.20;;;;;;;8.32;73.61;95040.73;106594;1275;25412;-65
2023/04/24 05:57:10;;;;;;;8.40;6.80;;;;;;;8.51;73.45;95037.95;106853;1275;23008;-65
2023/04/24 05:59:50;;;;;;;8.90;6.70;;;;;;;8.67;72.24;95033.58;106603;1275;24189;-68
2023/04/24 06:02:18;;;;;;;9.80;7.40;;;;;;;8.75;72.09;95033.96;106628;1275;22792;-67
2023/04/24 06:04:47;;;;;;;8.60;6.70;;;;;;;8.82;71.88;95035.23;106618;1275;24363;-66
2023/04/24 06:07:15;;;;;;;12.00;7.00;;;;;;;8.91;71.67;95034.34;106646;1275;22525;-64
2023/04/24 06:09:44;;;;;;;7.60;6.60;;;;;;;8.98;71.31;95035.77;106546;1275;24917;-65
2023/04/24 06:12:12;;;;;;;9.90;7.20;;;;;;;9.08;71.40;95032.03;106639;1275;22637;-66
2023/04/24 06:14:55;;;;;;;7.90;6.60;;;;;;;9.20;70.91;95029.87;106456;1275;24461;-67
2023/04/24 06:17:31;;;;;;;8.00;6.20;;;;;;;9.28;70.79;95027.91;106734;1275;22516;-66
2023/04/24 06:19:59;;;;;;;7.40;6.50;;;;;;;9.32;70.74;95026.06;106846;1275;25319;-65
2023/04/24 06:22:28;;;;;;;8.60;6.50;;;;;;;9.33;69.68;95027.10;106728;1272;22513;-66
2023/04/24 06:24:56;;;;;;;10.10;5.90;;;;;;;9.36;69.25;95023.68;106995;1276;24362;-65
2023/04/24 06:27:25;;;;;;;12.00;6.40;;;;;;;9.46;68.67;95023.27;106815;1276;24244;-66
2023/04/24 06:29:54;;;;;;;8.90;6.30;;;;;;;9.55;68.84;95021.84;106876;1276;24201;-68
2023/04/24 06:32:24;;;;;;;10.10;6.80;;;;;;;9.73;68.54;95022.82;106729;1276;25317;-66
2023/04/24 06:34:52;;;;;;;11.40;7.60;;;;;;;9.92;68.05;95016.04;106565;1276;25424;-66
2023/04/24 06:37:21;;;;;;;8.80;5.70;;;;;;;10.03;67.95;95015.91;106570;1276;24355;-66
2023/04/24 06:39:49;;;;;;;6.70;5.30;;;;;;;10.19;65.99;95013.91;106652;1260;25913;-66
2023/04/24 06:42:20;;;;;;;7.20;5.90;;;;;;;10.36;64.80;95009.11;106527;1276;22524;-68
2023/04/24 06:44:49;;;;;;;8.50;5.30;;;;;;;10.55;64.83;95005.59;106445;1276;22518;-67
2023/04/24 06:47:18;;;;;;;6.70;5.60;;;;;;;10.72;65.16;95002.83;106537;1270;24244;-69
2023/04/24 06:49:46;;;;;;;7.20;5.50;;;;;;;10.93;64.54;95000.11;106737;1276;23900;-66
2023/04/24 06:52:14;;;;;;;6.30;5.60;;;;;;;11.13;64.39;95002.16;106498;1276;24374;-70
2023/04/24 06:54:43;;;;;;;6.80;5.50;;;;;;;11.33;63.25;95003.29;106839;1276;25388;-67
2023/04/24 06:57:11;;;;;;;7.70;5.80;;;;;;;11.50;63.10;94995.55;106627;1276;22512;-69
2023/04/24 06:59:39;;;;;;;7.60;5.80;;;;;;;11.70;63.55;94993.84;106854;1276;24243;-67
2023/04/24 07:02:08;;;;;;;6.50;5.30;;;;;;;11.84;63.08;94990.60;106499;1276;24064;-70
2023/04/24 07:04:37;;;;;;;7.80;7.00;;;;;;;11.94;62.85;94988.34;106647;1276;24209;-66
2023/04/24 07:07:06;;;;;;;7.10;6.10;;;;;;;12.02;61.75;94985.25;106873;1276;22519;-66
2023/04/24 07:09:38;;;;;;;8.20;6.40;;;;;;;12.17;62.26;94979.60;106844;1276;25607;-65
2023/04/24 07:12:07;;;;;;;10.00;6.80;;;;;;;12.40;62.79;94978.64;106545;1276;25318;-65
2023/04/24 07:14:35;;;;;;;6.20;5.60;;;;;;;12.62;61.49;94972.73;106876;1276;22640;-66
2023/04/24 07:17:05;;;;;;;7.90;5.50;;;;;;;12.82;61.67;94973.39;106588;1276;22776;-66
2023/04/24 07:19:35;;;;;;;7.30;4.90;;;;;;;13.03;60.78;94973.33;106565;1276;25197;-67
2023/04/24 07:22:03;;;;;;;6.90;5.20;;;;;;;13.22;59.96;94968.71;106589;1276;24259;-67
2023/04/24 07:24:34;;;;;;;6.70;5.40;;;;;;;13.41;59.96;94962.34;106533;1276;22608;-68
2023/04/24 07:27:04;;;;;;;6.70;5.80;;;;;;;13.60;58.32;94960.19;106328;1276;24330;-67
2023/04/24 07:29:33;;;;;;;8.80;5.70;;;;;;;13.78;58.77;94961.91;106598;1276;25341;-66
2023/04/24 07:32:02;;;;;;;8.70;5.40;;;;;;;14.00;57.96;94958.86;106718;1276;25446;-66
2023/04/24 07:34:31;;;;;;;8.50;6.50;;;;;;;14.21;58.14;94957.80;106558;1276;24330;-65
2023/04/24 07:36:59;;;;;;;6.20;5.40;;;;;;;14.43;57.95;94956.85;106533;1276;22545;-68
2023/04/24 07:39:29;;;;;;;7.10;5.50;;;;;;;14.68;57.86;94955.60;106462;1276;22655;-68
2023/04/24 07:41:58;;;;;;;7.80;6.80;;;;;;;14.95;57.68;94958.84;107154;1276;25262;-70
2023/04/24 07:44:26;;;;;;;9.60;6.00;;;;;;;15.17;56.74;94960.09;106908;1276;22595;-67
2023/04/24 07:46:56;;;;;;;7.30;6.10;;;;;;;15.36;57.08;94960.27;106866;1276;22524;-68
2023/04/24 07:49:24;;;;;;;6.70;4.80;;;;;;;15.38;54.95;94959.98;106884;1276;22595;-67
2023/04/24 07:51:53;;;;;;;9.60;4.90;;;;;;;15.21;53.61;94962.94;106466;1276;25471;-69
2023/04/24 07:54:21;;;;;;;6.50;4.90;;;;;;;15.15;54.91;94965.51;106602;1276;25397;-69
2023/04/24 07:56:50;;;;;;;8.10;6.60;;;;;;;15.01;53.96;94971.13;106837;1276;24229;-67
2023/04/24 07:59:18;;;;;;;9.00;6.90;;;;;;;14.88;54.43;94970.27;106795;1276;25468;-68
2023/04/24 08:01:46;;;;;;;9.50;5.90;;;;;;;14.78;54.40;94967.71;106568;1276;22632;-71
2023/04/24 08:04:14;;;;;;;6.30;5.40;;;;;;;14.71;54.55;94965.02;106802;1276;25366;-67
2023/04/24 08:06:43;;;;;;;7.50;5.70;;;;;;;14.66;53.84;94960.81;106583;1276;22629;-67
2023/04/24 08:09:12;;;;;;;8.80;5.30;;;;;;;14.70;53.46;94961.38;106656;1276;24209;-68
2023/04/24 08:11:40;;;;;;;7.90;5.40;;;;;;;14.91;52.79;94958.65;106583;1276;22536;-66
2023/04/24 08:14:08;;;;;;;8.60;5.70;;;;;;;15.10;52.13;94958.67;106344;1274;24415;-65
2023/04/24 08:16:36;;;;;;;6.30;5.10;;;;;;;15.38;53.12;94952.56;106528;1276;22561;-68
2023/04/24 08:19:05;;;;;;;5.80;5.20;;;;;;;15.65;52.04;94951.96;107049;1253;23920;-66
2023/04/24 08:21:33;;;;;;;7.80;5.80;;;;;;;15.93;53.84;94944.95;106819;1276;22742;-67
2023/04/24 08:24:04;;;;;;;7.90;6.60;;;;;;;16.28;52.70;94937.84;106813;1276;24680;-66
2023/04/24 08:26:33;;;;;;;6.40;5.70;;;;;;;16.51;50.46;94932.62;106626;1275;25389;-67
2023/04/24 08:29:01;;;;;;;9.20;8.20;;;;;;;16.73;50.98;94932.86;106660;1276;24322;-68
2023/04/24 08:31:30;;;;;;;8.00;5.50;;;;;;;16.79;49.92;94936.11;106390;1276;22524;-69
2023/04/24 08:33:59;;;;;;;7.40;6.40;;;;;;;16.73;49.12;94932.68;106462;1276;25389;-67
2023/04/24 08:36:28;;;;;;;5.10;4.60;;;;;;;16.60;47.58;94928.05;106757;1276;22543;-68
2023/04/24 08:39:14;;;;;;;7.90;5.00;;;;;;;16.29;47.59;94933.89;107165;1276;22549;-68
2023/04/24 08:41:43;;;;;;;7.10;4.50;;;;;;;16.09;47.96;94932.08;106582;1276;22517;-67
2023/04/24 08:44:16;;;;;;;6.70;4.40;;;;;;;15.92;48.73;94939.85;106621;1276;22864;-67
2023/04/24 08:46:48;;;;;;;7.50;4.70;;;;;;;15.76;48.87;94947.75;106788;1276;24487;-67
2023/04/24 08:49:17;;;;;;;6.40;4.80;;;;;;;15.65;48.69;94948.10;106489;1276;25440;-68
2023/04/24 08:51:47;;;;;;;5.00;4.20;;;;;;;15.62;48.87;94944.52;106523;1264;22524;-67
2023/04/24 08:54:16;;;;;;;4.30;3.80;;;;;;;15.65;49.04;94937.42;106887;1275;24253;-66
2023/04/24 08:56:47;;;;;;;4.70;4.20;;;;;;;15.67;48.44;94934.48;106696;1260;25217;-67
2023/04/24 08:59:16;;;;;;;7.60;6.00;;;;;;;15.64;48.27;94933.95;106497;1276;22520;-67
2023/04/24 09:01:47;;;;;;;7.70;5.00;;;;;;;15.72;49.66;94932.15;106759;1276;25496;-66
2023/04/24 09:04:17;;;;;;;5.10;4.50;;;;;;;15.77;48.43;94925.55;106577;1276;22526;-68
2023/04/24 09:06:47;;;;;;;8.10;4.90;;;;;;;15.71;45.98;94923.86;106782;1276;26080;-66
2023/04/24 09:09:16;;;;;;;9.00;4.60;;;;;;;15.73;47.18;94924.84;106673;1276;25378;-68
2023/04/24 09:11:45;;;;;;;8.10;5.70;;;;;;;15.85;47.62;94920.01;106844;1276;24387;-69
2023/04/24 09:14:14;;;;;;;7.20;5.60;;;;;;;15.89;47.67;94918.89;106639;1276;24364;-70
2023/04/24 09:16:42;;;;;;;9.50;5.50;;;;;;;15.96;48.07;94915.36;106602;1276;24352;-67
2023/04/24 09:19:11;;;;;;;8.40;5.20;;;;;;;16.01;48.32;94911.02;106772;1276;22782;-68
2023/04/24 09:21:41;;;;;;;7.80;4.90;;;;;;;16.00;47.55;94905.73;106557;1276;22981;-68
2023/04/24 09:24:20;;;;;;;8.80;4.60;;;;;;;15.98;47.29;94905.32;106598;1276;22517;-68
2023/04/24 09:26:49;;;;;;;9.00;5.60;;;;;;;15.87;46.76;94901.98;106595;1276;24471;-69
2023/04/24 09:29:18;;;;;;;8.00;5.20;;;;;;;15.74;47.66;94899.77;108126;1269;24061;-68
2023/04/24 09:31:46;;;;;;;5.60;4.60;;;;;;;15.70;48.98;94908.83;106596;1276;22527;-71
2023/04/24 09:34:24;;;;;;;6.50;4.60;;;;;;;15.63;49.04;94909.85;106587;1276;25390;-68
2023/04/24 09:36:54;;;;;;;12.00;8.20;;;;;;;15.54;49.70;94912.42;106612;1276;25198;-68
2023/04/24 09:39:23;;;;;;;9.20;7.10;;;;;;;15.52;50.35;94913.23;106632;1276;22980;-67
2023/04/24 09:41:59;;;;;;;9.20;6.90;;;;;;;15.46;50.94;94915.17;106574;1276;24318;-68
2023/04/24 09:44:28;;;;;;;15.50;10.00;;;;;;;15.38;51.90;94915.71;106603;1276;25261;-68
2023/04/24 09:46:58;;;;;;;19.90;11.60;;;;;;;15.27;52.63;94920.46;106640;1276;24200;-68
2023/04/24 09:49:35;;;;;;;18.90;10.10;;;;;;;15.15;52.61;94919.46;106684;1276;25337;-67
2023/04/24 09:52:09;;;;;;;16.80;9.80;;;;;;;15.02;52.56;94921.48;106633;1276;22532;-67
2023/04/24 09:54:38;;;;;;;13.10;8.90;;;;;;;14.88;52.11;94921.03;106751;1276;25432;-68
2023/04/24 09:57:10;;;;;;;10.10;7.20;;;;;;;14.81;52.35;94923.32;106591;1276;23890;-68
2023/04/24 09:59:46;;;;;;;9.10;6.60;;;;;;;14.75;52.35;94926.45;106652;1276;25352;-68
2023/04/24 10:02:22;;;;;;;9.20;6.40;;;;;;;14.67;52.65;94927.86;106602;1276;24371;-66
2023/04/24 10:04:59;;;;;;;8.00;6.20;;;;;;;14.58;52.97;94927.55;106583;1276;22648;-63
2023/04/24 10:07:28;;;;;;;10.50;6.30;;;;;;;14.45;53.99;94927.77;106636;1276;24201;-63
2023/04/24 10:09:57;;;;;;;12.60;6.40;;;;;;;14.30;54.40;94933.36;106574;1276;23806;-64
2023/04/24 10:12:27;;;;;;;7.10;6.40;;;;;;;14.21;55.39;94937.48;106649;1276;22527;-64
2023/04/24 10:14:56;;;;;;;6.70;5.50;;;;;;;14.14;55.81;94936.87;106589;1276;22639;-63
2023/04/24 10:17:25;;;;;;;6.60;5.70;;;;;;;14.09;56.22;94939.05;106853;1276;22522;-64
2023/04/24 10:19:55;;;;;;;9.20;7.00;;;;;;;14.02;57.24;94937.05;106876;1276;22612;-63
2023/04/24 10:22:24;;;;;;;9.70;6.50;;;;;;;13.98;57.49;94938.27;106680;1264;25230;-64
2023/04/24 10:24:53;;;;;;;20.10;13.30;;;;;;;13.96;57.98;94934.45;106625;1276;25393;-63
2023/04/24 10:27:21;;;;;;;11.30;9.40;;;;;;;13.95;60.90;94936.83;106573;1276;22532;-64
2023/04/24 10:29:53;;;;;;;22.00;15.40;;;;;;;13.91;60.09;94935.39;106724;1276;25355;-63
2023/04/24 10:32:21;;;;;;;11.80;9.50;;;;;;;13.91;60.34;94934.70;106614;1276;22642;-63
2023/04/24 10:34:49;;;;;;;15.10;8.70;;;;;;;13.94;61.44;94934.75;106667;1276;25143;-63
2023/04/24 10:37:18;;;;;;;11.70;8.40;;;;;;;13.97;62.38;94940.59;106961;1276;22527;-63
2023/04/24 10:39:48;;;;;;;12.40;7.90;;;;;;;14.01;62.54;94938.15;106697;1275;22590;-64
2023/04/24 10:42:17;;;;;;;12.30;6.10;;;;;;;14.02;61.82;94942.15;106639;1276;26505;-63
2023/04/24 10:44:48;;;;;;;5.90;5.20;;;;;;;14.00;60.96;94943.48;106575;1276;25501;-63
2023/04/24 10:47:16;;;;;;;6.30;5.60;;;;;;;13.93;60.30;94943.29;106628;1276;25322;-63
2023/04/24 10:49:45;;;;;;;6.20;5.50;;;;;;;13.89;61.14;94948.40;106607;1276;25238;-63
2023/04/24 10:52:14;;;;;;;7.90;6.50;;;;;;;13.84;61.43;94953.00;106598;1276;22936;-64
2023/04/24 10:54:44;;;;;;;8.10;6.20;;;;;;;13.79;61.58;94952.66;106603;1276;22525;-63
2023/04/24 10:57:22;;;;;;;6.30;5.50;;;;;;;13.80;62.39;94952.82;106603;1276;26606;-64
2023/04/24 11:00:19;;;;;;;6.00;5.40;;;;;;;13.71;62.16;94948.58;106630;1276;22667;-63
2023/04/24 11:02:50;;;;;;;10.10;5.60;;;;;;;13.69;63.36;94942.85;106656;1276;23021;-63
2023/04/24 11:05:20;;;;;;;7.60;5.90;;;;;;;13.63;62.47;94941.32;106611;1253;25489;-64
2023/04/24 11:08:11;;;;;;;8.50;6.20;;;;;;;13.60;62.77;94937.36;106661;1276;22646;-64
2023/04/24 11:10:43;;;;;;;5.70;4.90;;;;;;;13.63;62.63;94942.20;106703;1276;25329;-64
2023/04/24 11:13:21;;;;;;;8.10;5.60;;;;;;;13.58;60.89;94945.74;106530;1270;24273;-64
2023/04/24 11:16:28;;;;;;;9.00;6.70;;;;;;;13.56;61.82;94949.21;106613;1276;25540;-64
2023/04/24 11:19:08;;;;;;;8.70;5.80;;;;;;;13.57;62.24;94950.22;106638;1276;24350;-64
2023/04/24 11:22:00;;;;;;;7.20;6.10;;;;;;;13.57;61.07;94952.86;106790;1276;24391;-64
2023/04/24 11:24:46;;;;;;;7.40;5.70;;;;;;;13.50;61.11;94953.86;106611;1273;22525;-64
2023/04/24 11:27:20;;;;;;;7.90;6.30;;;;;;;13.49;61.84;94952.67;106565;1276;22537;-64
2023/04/24 11:29:54;;;;;;;8.60;6.80;;;;;;;13.46;62.32;94950.66;106655;1276;22638;-64
2023/04/24 11:32:33;;;;;;;14.60;9.20;;;;;;;13.47;63.91;94951.88;106643;1276;23147;-64
2023/04/24 11:35:06;;;;;;;9.60;7.80;;;;;;;13.50;64.27;94946.46;106564;1276;22540;-67
2023/04/24 11:37:39;;;;;;;7.80;6.40;;;;;;;13.53;64.24;94949.48;106607;1277;24199;-64
2023/04/24 11:40:10;;;;;;;8.10;6.40;;;;;;;13.55;64.14;94951.34;106613;1277;24260;-64
2023/04/24 11:42:46;;;;;;;9.20;6.80;;;;;;;13.60;65.18;94953.10;106070;1272;700743;-64